Time;durP1;ratioP1;P1;durP2;ratioP2;P2;SDS_P1;SDS_P2;PMS_P1;PMS_P2;Temp;Humidity;BMP_temperature;BMP_pressure;BME280_temperature;BME280_humidity;BME280_pressure;Samples;Min_cycle;Max_cycle;Signal;HPM_P1;HPM_P2
2021/04/30 00:00:37;;;;;;;24.83;17.87;;;7.20;99.90;;;-143.32;100.00;54964.03;4921125;29;20506;-88
2021/04/30 00:03:04;;;;;;;28.77;18.50;;;7.30;99.90;;;-143.32;100.00;54982.22;4921083;29;20482;-87
2021/04/30 00:05:33;;;;;;;31.47;18.60;;;7.20;99.90;;;-143.32;100.00;54962.00;4921044;29;20526;-89
2021/04/30 00:08:00;;;;;;;31.60;20.23;;;7.20;99.90;;;-143.32;100.00;54986.25;4921643;29;20455;-86
2021/04/30 00:10:28;;;;;;;36.53;20.67;;;7.20;99.90;;;-143.32;100.00;54955.94;4920935;29;20547;-88
2021/04/30 00:12:55;;;;;;;41.13;19.40;;;7.30;1.00;;;-143.32;100.00;54949.88;4920488;29;20498;-86
2021/04/30 00:15:22;;;;;;;38.73;19.57;;;7.20;1.00;;;-143.32;100.00;54957.97;4920507;29;20481;-87
2021/04/30 00:17:49;;;;;;;42.13;21.10;;;7.20;1.00;;;-143.32;100.00;54917.56;4920535;29;20469;-87
2021/04/30 00:20:16;;;;;;;36.23;19.53;;;7.10;1.00;;;-143.32;100.00;54931.69;4920682;29;20458;-87
2021/04/30 00:22:44;;;;;;;33.93;20.63;;;7.20;1.00;;;-143.32;100.00;54943.81;4920459;29;20454;-88
2021/04/30 00:25:12;;;;;;;39.60;20.97;;;7.10;1.00;;;-143.32;100.00;54911.50;4920387;29;21021;-88
2021/04/30 00:27:39;;;;;;;34.70;20.37;;;7.20;1.00;;;-143.32;100.00;54935.72;4920651;29;20503;-88
2021/04/30 00:30:10;;;;;;;30.83;20.60;;;7.10;1.00;;;-143.32;100.00;54964.03;4920592;29;20455;-87
2021/04/30 00:32:38;;;;;;;31.30;20.00;;;7.10;1.00;;;-143.32;100.00;54935.72;4920324;29;20957;-86
2021/04/30 00:35:06;;;;;;;37.87;22.73;;;7.10;1.00;;;-143.32;100.00;54927.66;4920418;29;20494;-87
2021/04/30 00:37:33;;;;;;;31.00;20.03;;;7.10;1.00;;;-143.32;100.00;54953.91;4920510;29;20486;-88
2021/04/30 00:40:00;;;;;;;37.50;20.87;;;7.10;1.00;;;-143.32;100.00;54941.78;4921041;29;20487;-87
2021/04/30 00:42:27;;;;;;;30.40;21.20;;;7.20;1.00;;;-143.32;100.00;54947.84;4920125;29;21041;-87
2021/04/30 00:44:54;;;;;;;33.10;19.87;;;7.20;1.00;;;-143.32;100.00;54937.75;4920358;29;20486;-88
2021/04/30 00:47:29;;;;;;;37.33;21.17;;;7.30;1.00;;;-143.32;100.00;54925.63;4920346;29;20450;-88
2021/04/30 00:49:56;;;;;;;43.03;21.43;;;7.20;1.00;;;-143.32;100.00;54919.56;4919866;29;20478;-86
2021/04/30 00:52:23;;;;;;;46.77;21.80;;;7.20;1.00;;;-143.32;100.00;54939.78;4919914;29;20511;-89
2021/04/30 00:54:49;;;;;;;40.10;23.33;;;7.10;1.00;;;-143.32;100.00;54939.78;4919791;29;20462;-88
2021/04/30 00:57:18;;;;;;;36.30;23.70;;;7.20;1.00;;;-143.32;100.00;54923.59;4920134;29;20462;-90
2021/04/30 00:59:44;;;;;;;35.13;22.33;;;7.20;1.00;;;-143.32;100.00;54925.63;4920048;29;20487;-86
2021/04/30 01:02:11;;;;;;;33.57;20.90;;;7.20;61.80;;;-143.32;100.00;54927.66;4919400;29;20502;-88
2021/04/30 01:04:38;;;;;;;42.87;22.37;;;7.20;29.50;;;-143.32;100.00;54911.50;4919700;29;20550;-89
2021/04/30 01:07:04;;;;;;;38.37;22.17;;;7.10;99.80;;;-143.32;100.00;54927.66;4919912;29;20489;-89
2021/04/30 01:09:31;;;;;;;45.77;23.17;;;7.10;99.90;;;-143.32;100.00;54881.19;4919679;29;20443;-88
2021/04/30 01:11:58;;;;;;;41.40;24.57;;;7.10;99.90;;;-143.32;100.00;54873.09;4919515;29;20962;-87
2021/04/30 01:14:25;;;;;;;36.70;22.40;;;7.10;99.90;;;-143.32;100.00;54887.25;4919382;29;20467;-88
2021/04/30 01:16:52;;;;;;;41.03;22.67;;;7.10;99.90;;;-143.32;100.00;54885.22;4919759;29;20490;-87
2021/04/30 01:19:25;;;;;;;51.90;24.57;;;7.10;99.90;;;-143.32;100.00;54865.00;4919748;29;20819;-89
2021/04/30 01:21:54;;;;;;;43.23;24.57;;;7.10;99.90;;;-143.32;100.00;54873.09;4919716;29;20465;-90
2021/04/30 01:24:21;;;;;;;48.40;24.57;;;7.10;99.90;;;-143.32;100.00;54881.19;4919654;29;20478;-89
2021/04/30 01:26:48;;;;;;;40.57;24.10;;;7.10;99.90;;;-143.32;100.00;54854.91;4919322;29;20454;-88
2021/04/30 01:29:16;;;;;;;52.40;26.43;;;7.20;99.90;;;-143.32;100.00;54840.75;4920518;29;20514;-89
2021/04/30 01:31:43;;;;;;;40.10;24.03;;;7.20;99.90;;;-143.32;100.00;54865.00;4919841;29;20466;-88
2021/04/30 01:34:11;;;;;;;38.87;23.57;;;7.20;99.90;;;-143.32;100.00;54846.81;4919149;29;20455;-87
2021/04/30 01:36:38;;;;;;;38.30;24.33;;;7.20;99.90;;;-143.32;100.00;54844.81;4919682;29;20531;-86
2021/04/30 01:39:08;;;;;;;47.07;27.07;;;7.20;99.90;;;-143.32;100.00;54846.81;4919369;29;20478;-87
2021/04/30 01:41:38;;;;;;;43.37;25.40;;;7.20;99.90;;;-143.32;100.00;54856.94;4919034;29;20528;-87
2021/04/30 01:44:07;;;;;;;41.60;24.50;;;7.30;99.90;;;-143.32;100.00;54854.91;4919248;29;20455;-87
2021/04/30 01:46:34;;;;;;;39.57;26.00;;;7.20;99.90;;;-143.32;100.00;54826.63;4919241;29;20491;-87
2021/04/30 01:49:01;;;;;;;34.87;24.13;;;7.30;99.90;;;-143.32;100.00;54844.81;4919174;29;20486;-88
2021/04/30 01:51:27;;;;;;;34.33;22.33;;;7.30;99.90;;;-143.32;100.00;54848.84;4919194;29;20443;-87
2021/04/30 01:53:54;;;;;;;41.83;24.13;;;7.30;99.90;;;-143.32;100.00;54869.06;4919882;29;20891;-86
2021/04/30 01:56:22;;;;;;;39.30;22.27;;;7.40;99.90;;;-143.32;100.00;54852.88;4918947;29;20491;-89
2021/04/30 01:58:48;;;;;;;34.23;21.83;;;7.50;99.90;;;-143.32;100.00;54836.72;4919102;29;20486;-92
2021/04/30 02:01:15;;;;;;;43.53;22.73;;;7.20;99.90;;;-143.32;100.00;54820.56;4919117;29;20558;-87
2021/04/30 02:03:42;;;;;;;37.20;22.90;;;7.30;99.90;;;-143.32;100.00;54830.66;4918534;29;20455;-88
2021/04/30 02:06:09;;;;;;;39.43;22.00;;;7.30;99.90;;;-143.32;100.00;54814.50;4918899;29;20799;-90
2021/04/30 02:08:35;;;;;;;41.77;23.57;;;7.30;99.90;;;-143.32;100.00;54852.88;4918590;29;20485;-89
2021/04/30 02:11:03;;;;;;;38.60;22.00;;;7.20;99.90;;;-143.32;100.00;54836.72;4918796;29;20462;-88
2021/04/30 02:13:30;;;;;;;34.47;22.33;;;7.20;99.90;;;-143.32;100.00;54858.94;4917545;29;20463;-88
2021/04/30 02:15:58;;;;;;;44.07;22.90;;;7.30;99.90;;;-143.32;100.00;54848.84;4918709;29;20570;-88
2021/04/30 02:18:25;;;;;;;37.47;23.10;;;7.30;99.90;;;-143.32;100.00;54794.28;4918694;29;20478;-88
2021/04/30 02:20:53;;;;;;;49.60;24.13;;;7.20;99.90;;;-143.32;100.00;54850.88;4918638;29;20482;-89
2021/04/30 02:23:21;;;;;;;36.83;24.07;;;7.10;99.90;;;-143.32;100.00;54814.50;4918233;29;20463;-87
2021/04/30 02:25:49;;;;;;;50.93;23.50;;;7.20;99.90;;;-143.32;100.00;54867.03;4918633;29;20502;-88
2021/04/30 02:28:15;;;;;;;50.97;26.03;;;7.10;99.90;;;-143.32;100.00;54820.56;4918154;29;20458;-90
2021/04/30 02:30:43;;;;;;;47.13;26.90;;;7.10;99.90;;;-143.32;100.00;54804.41;4918090;29;20450;-86
2021/04/30 02:33:11;;;;;;;50.03;25.93;;;7.10;99.90;;;-143.32;100.00;54830.66;4918572;29;20463;-89
2021/04/30 02:35:41;;;;;;;43.43;24.80;;;7.10;99.90;;;-143.32;100.00;54798.34;4918484;29;20581;-87
2021/04/30 02:38:10;;;;;;;47.17;26.33;;;7.10;99.90;;;-143.32;100.00;54798.34;4918544;29;20922;-87
2021/04/30 02:40:39;;;;;;;45.30;24.70;;;7.20;99.90;;;-143.32;100.00;54800.34;4917987;29;20459;-88
2021/04/30 02:43:08;;;;;;;40.53;26.13;;;7.20;99.90;;;-143.32;100.00;54796.31;4918234;29;20534;-89
2021/04/30 02:45:35;;;;;;;46.10;26.53;;;7.20;99.90;;;-143.32;100.00;54800.34;4918207;29;20451;-88
2021/04/30 02:48:09;;;;;;;45.43;24.73;;;7.20;99.90;;;-143.32;100.00;54810.47;4918696;29;20451;-88
2021/04/30 02:50:35;;;;;;;43.93;25.00;;;7.10;99.90;;;-143.32;100.00;54749.84;4917940;29;20558;-88
2021/04/30 02:53:02;;;;;;;38.23;23.90;;;7.10;99.90;;;-143.32;100.00;54747.81;4917736;29;20559;-87
2021/04/30 02:55:29;;;;;;;61.00;25.50;;;7.40;99.90;;;-143.32;100.00;54741.75;4917884;29;20491;-89
2021/04/30 02:57:57;;;;;;;50.63;24.33;;;7.30;99.90;;;-143.32;100.00;54780.16;4917626;29;20534;-89
2021/04/30 03:00:26;;;;;;;54.43;25.37;;;7.30;99.90;;;-143.32;100.00;54768.03;4917601;29;21045;-87
2021/04/30 03:03:00;;;;;;;39.53;23.93;;;7.30;99.90;;;-143.32;100.00;54753.88;4918055;29;20455;-89
2021/04/30 03:05:31;;;;;;;54.13;24.90;;;7.30;99.90;;;-143.32;100.00;54774.09;4917603;29;21064;-86
2021/04/30 03:07:58;;;;;;;42.27;25.87;;;7.30;99.90;;;-143.32;100.00;54729.63;4917500;29;20451;-88
2021/04/30 03:10:25;;;;;;;39.73;23.73;;;7.30;99.90;;;-143.32;100.00;54737.72;4917717;29;20514;-88
2021/04/30 03:12:51;;;;;;;50.90;24.83;;;7.30;99.90;;;-143.32;100.00;54763.97;4917682;29;20455;-88
2021/04/30 03:15:19;;;;;;;43.60;25.17;;;7.30;99.90;;;-143.32;100.00;54749.84;4917682;29;20497;-88
2021/04/30 03:17:46;;;;;;;46.97;25.37;;;7.40;99.90;;;-143.32;100.00;54766.00;4917729;29;20459;-88
2021/04/30 03:20:15;;;;;;;48.93;25.00;;;7.30;99.90;;;-143.32;100.00;54753.88;4917672;29;20842;-89
2021/04/30 03:22:43;;;;;;;45.13;23.43;;;7.30;99.90;;;-143.32;100.00;54741.75;4917589;29;20457;-89
2021/04/30 03:25:12;;;;;;;48.03;23.90;;;7.20;99.90;;;-143.32;100.00;54727.63;4917638;29;20454;-88
2021/04/30 03:27:39;;;;;;;50.13;27.87;;;7.20;99.90;;;-143.32;100.00;54729.63;4917663;29;20482;-88
2021/04/30 03:30:08;;;;;;;51.87;26.30;;;7.20;99.90;;;-143.32;100.00;54757.94;4917290;29;20459;-87
2021/04/30 03:32:35;;;;;;;50.20;24.87;;;7.30;99.90;;;-143.32;100.00;54770.03;4917260;29;20993;-89
2021/04/30 03:35:03;;;;;;;37.93;23.57;;;7.30;99.90;;;-143.32;100.00;54753.88;4917472;29;20450;-89
2021/04/30 03:37:29;;;;;;;46.83;26.33;;;7.20;99.90;;;-143.32;100.00;54725.59;4917532;29;20580;-87
2021/04/30 03:39:57;;;;;;;43.97;26.10;;;7.20;99.90;;;-143.32;100.00;54745.81;4917414;29;20482;-88
2021/04/30 03:42:24;;;;;;;51.90;25.83;;;7.20;99.90;;;-143.32;100.00;54723.56;4917276;29;20852;-87
2021/04/30 03:44:50;;;;;;;40.00;24.90;;;7.30;99.90;;;-143.32;100.00;54697.31;4917096;29;20490;-87
2021/04/30 03:47:17;;;;;;;54.53;26.17;;;7.30;99.90;;;-143.32;100.00;54717.50;4917394;29;20454;-87
2021/04/30 03:49:43;;;;;;;51.40;25.93;;;7.20;99.90;;;-143.32;100.00;54721.56;4917235;29;20538;-86
2021/04/30 03:52:10;;;;;;;51.33;26.83;;;7.30;99.90;;;-143.32;100.00;54717.50;4917417;29;20795;-87
2021/04/30 03:54:37;;;;;;;46.47;26.80;;;7.20;99.90;;;-143.32;100.00;54715.50;4917307;29;20938;-87
2021/04/30 03:57:05;;;;;;;53.30;28.70;;;7.10;99.90;;;-143.32;100.00;54737.72;4917287;29;20495;-88
2021/04/30 03:59:37;;;;;;;61.60;29.77;;;7.10;99.90;;;-143.32;100.00;54656.91;4917271;29;20942;-87
2021/04/30 04:02:04;;;;;;;65.93;30.00;;;7.10;99.90;;;-143.32;100.00;54675.09;4917264;29;20627;-88
2021/04/30 04:04:41;;;;;;;62.50;30.97;;;7.20;99.90;;;-143.32;100.00;54689.22;4917136;29;20459;-89
2021/04/30 04:07:07;;;;;;;59.73;28.50;;;7.30;99.90;;;-143.32;100.00;54695.28;4917554;29;20431;-88
2021/04/30 04:09:34;;;;;;;51.63;28.87;;;7.30;99.90;;;-143.32;100.00;54689.22;4916853;29;20455;-88
2021/04/30 04:12:00;;;;;;;55.43;27.60;;;7.30;99.90;;;-143.32;100.00;54650.84;4917140;29;20450;-89
2021/04/30 04:14:28;;;;;;;59.83;29.03;;;7.20;99.90;;;-143.32;100.00;54677.09;4917223;29;20851;-88
2021/04/30 04:16:55;;;;;;;59.20;28.30;;;7.20;99.90;;;-143.32;100.00;54646.78;4917237;29;20521;-90
2021/04/30 04:19:21;;;;;;;51.87;28.07;;;7.30;99.90;;;-143.32;100.00;54654.88;4917174;29;20962;-90
2021/04/30 04:21:48;;;;;;;50.10;27.33;;;7.30;99.90;;;-143.32;100.00;54644.78;4917118;29;20458;-88
2021/04/30 04:24:14;;;;;;;45.80;28.03;;;7.40;99.90;;;-143.32;100.00;54675.09;4916757;29;20479;-91
2021/04/30 04:26:41;;;;;;;49.17;28.03;;;7.30;99.90;;;-143.32;100.00;54679.13;4917088;29;20558;-88
2021/04/30 04:29:08;;;;;;;60.07;28.00;;;7.30;99.90;;;-143.32;100.00;54638.72;4916757;29;20459;-88
2021/04/30 04:31:36;;;;;;;58.20;28.40;;;7.30;99.90;;;-143.32;100.00;54656.91;4918142;29;20451;-89
2021/04/30 04:34:03;;;;;;;57.83;30.67;;;7.30;99.90;;;-143.32;100.00;54673.06;4917826;29;20447;-90
2021/04/30 04:36:32;;;;;;;67.37;32.40;;;7.30;99.90;;;-143.32;100.00;54612.44;4917269;29;20498;-88
2021/04/30 04:38:58;;;;;;;72.77;34.80;;;7.30;99.90;;;-143.32;100.00;54632.66;4920429;29;20462;-90
2021/04/30 04:41:25;;;;;;;64.93;34.27;;;7.30;99.90;;;-143.32;100.00;54634.69;4920446;29;20458;-88
2021/04/30 04:43:52;;;;;;;68.73;33.90;;;7.40;99.90;;;-143.32;100.00;54630.63;4920268;29;20459;-91
2021/04/30 04:46:18;;;;;;;63.10;32.30;;;7.20;99.90;;;-143.32;100.00;54624.56;4920087;29;20450;-89
2021/04/30 04:49:08;;;;;;;56.23;32.90;;;7.20;99.90;;;-143.32;100.00;54612.44;4920359;29;20946;-90
2021/04/30 04:51:35;;;;;;;54.27;29.90;;;7.10;99.90;;;-143.32;100.00;54658.91;4925321;29;20467;-91
2021/04/30 04:54:02;;;;;;;57.03;32.33;;;7.20;99.90;;;-143.32;100.00;54624.56;4924030;29;20459;-91
2021/04/30 04:56:29;;;;;;;60.70;32.40;;;7.20;99.90;;;-143.32;100.00;54614.47;4924884;29;20502;-92
2021/04/30 04:58:56;;;;;;;69.90;34.00;;;7.20;99.90;;;-143.32;100.00;54574.06;4925885;29;20439;-93
2021/04/30 05:01:23;;;;;;;69.97;38.63;;;7.40;99.90;;;-143.32;100.00;54598.31;4921094;29;20454;-92
2021/04/30 05:03:50;;;;;;;92.43;42.43;;;7.20;99.90;;;-143.32;100.00;54616.50;4921451;29;20455;-91
2021/04/30 05:06:18;;;;;;;103.37;47.70;;;7.20;99.90;;;-143.32;100.00;54624.56;4921321;29;20451;-90
2021/04/30 05:08:44;;;;;;;98.30;46.27;;;7.20;99.90;;;-143.32;100.00;54610.44;4921270;29;20946;-90
2021/04/30 05:11:11;;;;;;;99.53;45.47;;;7.20;99.90;;;-143.32;100.00;54586.19;4920719;29;20946;-90
2021/04/30 05:17:19;;;;;;;83.63;43.30;;;7.20;99.90;;;-143.32;100.00;54594.25;4922726;29;20526;-93
2021/04/30 05:19:46;;;;;;;102.03;46.80;;;7.20;99.90;;;-143.32;100.00;54586.19;4933569;29;20455;-93
2021/04/30 05:22:15;;;;;;;109.37;47.50;;;7.20;99.90;;;-143.32;100.00;54580.13;4932928;29;20471;-90
2021/04/30 05:24:43;;;;;;;107.20;49.83;;;7.10;99.90;;;-143.32;100.00;54582.13;4931240;29;20458;-92
2021/04/30 05:27:11;;;;;;;113.73;51.80;;;7.10;99.90;;;-143.32;100.00;54574.06;4929610;29;20486;-92
2021/04/30 05:29:42;;;;;;;116.00;55.67;;;7.20;99.90;;;-143.32;100.00;54598.31;4930555;29;20450;-94
2021/04/30 05:32:13;;;;;;;116.83;56.70;;;7.10;99.90;;;-143.32;100.00;54533.66;4931153;29;20467;-94
2021/04/30 05:34:45;;;;;;;117.50;58.80;;;7.20;99.90;;;-143.32;100.00;54537.69;4931838;29;20447;-92
2021/04/30 05:37:19;;;;;;;128.90;59.77;;;7.30;99.90;;;-143.32;100.00;54539.72;4930148;29;20494;-92
2021/04/30 05:39:46;;;;;;;132.33;60.47;;;7.30;99.90;;;-143.32;100.00;54584.16;4932155;29;20423;-92
2021/04/30 05:42:17;;;;;;;137.80;60.47;;;7.30;99.90;;;-143.32;100.00;54541.72;4936724;29;20469;-92
2021/04/30 05:44:51;;;;;;;141.13;62.93;;;7.10;99.90;;;-143.32;100.00;54565.97;4936956;29;20503;-94
2021/04/30 05:47:24;;;;;;;143.20;63.73;;;7.30;99.90;;;-143.32;100.00;54592.25;4933603;29;20475;-92
2021/04/30 05:50:14;;;;;;;150.03;66.17;;;7.30;99.90;;;-143.32;100.00;54600.31;4935415;29;20455;-92
2021/04/30 05:53:28;;;;;;;;;;;;;;;;;;;;;
2021/04/30 05:55:59;;;;;;;149.97;63.93;;;7.10;99.90;;;-143.32;100.00;54576.09;4939019;29;20493;-94
2021/04/30 05:58:26;;;;;;;147.60;65.70;;;7.10;99.90;;;-143.32;100.00;54580.13;4924500;29;20459;-93
2021/04/30 06:00:55;;;;;;;134.70;61.17;;;7.10;99.90;;;-143.32;100.00;54561.94;4919976;29;20990;-91
2021/04/30 06:03:27;;;;;;;137.53;61.00;;;7.10;99.90;;;-143.32;100.00;54559.91;4919954;29;20458;-92
2021/04/30 06:05:57;;;;;;;140.20;60.40;;;7.10;99.90;;;-143.32;100.00;54561.94;4921361;29;20476;-92
2021/04/30 06:09:49;;;;;;;;;;;;;;;;;;;;;
2021/04/30 06:19:25;;;;;;;135.90;57.53;;;7.10;99.90;;;-143.32;100.00;54527.59;4878550;29;20475;-93
2021/04/30 06:22:18;;;;;;;139.40;59.10;;;7.30;99.90;;;-143.32;100.00;54561.94;4899183;29;20522;-93
2021/04/30 06:25:34;;;;;;;123.63;57.23;;;7.30;99.90;;;-143.32;100.00;54531.63;4935518;29;20466;-90
2021/04/30 06:28:12;;;;;;;124.37;55.43;;;7.60;99.90;;;-143.32;100.00;54561.94;4933510;29;20589;-90
2021/04/30 06:30:44;;;;;;;123.13;54.70;;;7.50;99.90;;;-143.32;100.00;54539.72;4919571;29;20824;-91
2021/04/30 06:36:57;;;;;;;113.87;55.20;;;7.50;99.90;;;-143.32;100.00;54539.72;4918929;29;20546;-90
2021/04/30 06:39:24;;;;;;;120.90;56.27;;;7.50;99.90;;;-143.32;100.00;54517.50;4918485;29;20454;-93
2021/04/30 06:42:30;;;;;;;135.40;54.43;;;7.60;99.90;;;-143.32;100.00;54543.75;4919950;29;20547;-91
2021/04/30 06:48:56;;;;;;;136.10;59.40;;;7.60;99.90;;;-143.32;100.00;54561.94;4919320;29;20415;-91
2021/04/30 06:51:30;;;;;;;147.43;65.33;;;7.20;99.90;;;-143.32;100.00;54555.88;4918285;29;20538;-92
2021/04/30 06:54:42;;;;;;;177.03;67.90;;;7.20;99.90;;;-143.32;100.00;54539.72;4931738;29;20459;-93
2021/04/30 06:57:51;;;;;;;;;;;;;;;;;;;;;
2021/04/30 07:23:23;;;;;;;190.00;78.73;;;7.30;99.90;;;-143.32;100.00;54489.19;4750904;30;20500;-90
2021/04/30 07:25:56;;;;;;;178.40;72.77;;;7.20;99.90;;;-143.32;100.00;54545.78;4760579;30;20581;-89
2021/04/30 07:29:06;;;;;;;200.97;73.33;;;7.10;99.90;;;-143.32;100.00;54521.53;4801369;29;20463;-91
2021/04/30 07:32:09;;;;;;;195.93;71.93;;;7.10;99.90;;;-143.32;100.00;54460.91;4821936;29;20467;-90
2021/04/30 07:35:20;;;;;;;177.30;73.83;;;7.10;99.90;;;-143.32;100.00;54493.25;4917253;29;20490;-88
2021/04/30 07:38:05;;;;;;;186.80;73.37;;;7.10;99.90;;;-143.32;100.00;54473.03;4917897;29;20458;-91
2021/04/30 07:47:56;;;;;;;206.70;75.50;;;7.20;99.90;;;-143.32;100.00;54458.91;4879846;29;20582;-91
2021/04/30 07:50:23;;;;;;;202.77;75.73;;;7.20;99.90;;;-143.32;100.00;54430.63;4918801;29;20493;-89
2021/04/30 07:52:50;;;;;;;205.03;76.63;;;7.30;99.90;;;-143.32;100.00;54446.78;4917465;29;20450;-88
2021/04/30 07:56:12;;;;;;;;;;;;;;;;;;;;;
2021/04/30 08:02:21;;;;;;;186.40;71.70;;;7.40;99.90;;;-143.32;100.00;54440.72;4927755;29;20415;-93
2021/04/30 08:04:51;;;;;;;173.47;69.87;;;7.50;99.90;;;-143.32;100.00;54460.91;4936095;29;20447;-92
2021/04/30 08:07:17;;;;;;;183.57;70.30;;;7.60;99.90;;;-143.32;100.00;54464.97;4934817;29;20443;-92
2021/04/30 08:09:53;;;;;;;168.23;65.97;;;7.60;99.90;;;-143.32;100.00;54471.03;4930917;29;20451;-93
2021/04/30 08:12:21;;;;;;;159.23;65.10;;;7.60;99.90;;;-143.32;100.00;54452.84;4933725;29;20451;-92
2021/04/30 08:15:03;;;;;;;166.67;65.30;;;7.80;99.90;;;-143.32;100.00;54458.91;4937151;29;20450;-91
2021/04/30 08:17:30;;;;;;;162.00;61.67;;;7.70;99.90;;;-143.32;100.00;54452.84;4934652;29;20483;-91
2021/04/30 08:20:02;;;;;;;162.37;63.47;;;7.70;99.90;;;-143.32;100.00;54483.16;4936071;29;20946;-92
2021/04/30 08:22:47;;;;;;;153.20;61.10;;;7.80;99.90;;;-143.32;100.00;54491.22;4936047;29;20507;-92
2021/04/30 08:28:57;;;;;;;171.37;62.63;;;7.80;99.90;;;-143.32;100.00;54505.38;4927491;29;20498;-93
2021/04/30 08:31:27;;;;;;;160.90;63.80;;;7.80;99.90;;;-143.32;100.00;54460.91;4924951;29;20463;-93
2021/04/30 08:38:46;;;;;;;171.03;65.73;;;7.90;99.90;;;-143.32;100.00;54487.19;4925207;29;20834;-92
2021/04/30 08:45:55;;;;;;;159.40;60.30;;;8.10;99.90;;;-143.32;100.00;54471.03;4881252;29;20512;-92
2021/04/30 08:48:28;;;;;;;155.63;60.87;;;8.20;1.00;;;-143.32;100.00;54485.16;4910149;29;20947;-91
2021/04/30 08:50:59;;;;;;;157.53;62.10;;;8.30;1.00;;;-143.32;100.00;54489.19;4920540;29;20478;-87
2021/04/30 08:54:53;;;;;;;147.47;61.77;;;8.30;1.00;;;-143.32;100.00;54479.09;4920472;29;20907;-89
2021/04/30 08:57:42;;;;;;;;;;;;;;;;;;;;;
2021/04/30 09:03:52;;;;;;;165.03;63.70;;;8.60;1.00;;;-143.32;100.00;54517.50;4862297;29;20467;-88
2021/04/30 09:06:46;;;;;;;155.30;64.30;;;8.60;99.90;;;-143.32;100.00;54495.25;4861842;29;20493;-90
2021/04/30 09:16:59;;;;;;;179.63;65.90;;;8.60;99.90;;;-143.32;100.00;54515.47;4846240;29;20493;-92
2021/04/30 09:19:33;;;;;;;152.63;67.90;;;8.60;1.00;;;-143.32;100.00;54495.25;4919885;29;20435;-91
2021/04/30 09:22:03;;;;;;;164.10;68.83;;;8.70;45.30;;;-143.32;100.00;54521.53;4919700;29;20436;-91
2021/04/30 09:24:30;;;;;;;123.43;60.03;;;8.70;99.90;;;-143.32;100.00;54539.72;4919794;29;20470;-91
2021/04/30 09:26:58;;;;;;;114.63;55.27;;;8.80;99.90;;;-143.32;100.00;54529.63;4915709;29;20796;-92
2021/04/30 09:29:32;;;;;;;105.23;53.67;;;8.70;99.90;;;-143.32;100.00;54547.78;4906913;29;20456;-91
2021/04/30 09:32:04;;;;;;;123.53;55.90;;;8.80;1.00;;;-143.32;100.00;54561.94;4910873;29;20448;-92
2021/04/30 09:34:40;;;;;;;126.87;59.50;;;8.50;1.00;;;-143.32;100.00;54549.81;4909468;29;20467;-92
2021/04/30 09:37:11;;;;;;;126.20;59.97;;;8.50;99.90;;;-143.32;100.00;54543.75;4909522;29;20789;-90
2021/04/30 09:39:51;;;;;;;128.03;61.70;;;8.50;99.90;;;-143.32;100.00;54531.63;4908134;29;20536;-91
2021/04/30 09:42:26;;;;;;;136.10;63.20;;;8.50;99.90;;;-143.32;100.00;54535.66;4908969;29;20460;-91
2021/04/30 09:44:59;;;;;;;134.27;61.30;;;8.60;99.90;;;-143.32;100.00;54539.72;4908006;29;20420;-88
2021/04/30 09:47:31;;;;;;;129.13;56.70;;;8.50;87.90;;;-143.32;100.00;54551.84;4906169;29;20439;-92
2021/04/30 09:50:13;;;;;;;118.20;55.23;;;8.60;99.90;;;-143.32;100.00;54582.13;4908757;29;20448;-91
2021/04/30 09:52:56;;;;;;;139.53;59.87;;;8.50;90.20;;;-143.32;100.00;54533.66;4907268;29;20421;-88
2021/04/30 09:55:40;;;;;;;139.43;53.60;;;8.50;1.00;;;-143.32;100.00;54519.50;4905915;29;20432;-90
2021/04/30 09:58:31;;;;;;;119.40;56.00;;;8.60;54.30;;;-143.32;100.00;54535.66;4905854;29;20464;-89
2021/04/30 10:01:06;;;;;;;105.63;53.23;;;8.80;99.90;;;-143.32;100.00;54565.97;4908605;29;20440;-92
2021/04/30 10:03:55;;;;;;;112.47;55.47;;;9.00;99.90;;;-143.32;100.00;54565.97;4908638;29;20523;-92
2021/04/30 10:06:35;;;;;;;120.13;54.20;;;8.90;99.90;;;-143.32;100.00;54507.38;4908194;29;20496;-89
2021/04/30 10:09:13;;;;;;;105.27;51.70;;;9.00;99.90;;;-143.32;100.00;54549.81;4905683;29;20413;-89
2021/04/30 10:11:46;;;;;;;116.97;51.23;;;9.30;99.90;;;-143.32;99.51;54551.84;4904962;29;20424;-87
2021/04/30 10:14:26;;;;;;;104.57;53.53;;;9.60;99.90;;;-143.32;98.97;54543.75;4908908;29;20781;-87
2021/04/30 10:16:53;;;;;;;102.20;50.57;;;9.50;99.90;;;-143.32;98.67;54570.03;4943329;29;20504;-89
2021/04/30 10:20:00;;;;;;;100.73;49.80;;;9.50;1.00;;;-143.32;99.03;54570.03;4943328;29;20442;-88
2021/04/30 10:22:46;;;;;;;96.20;47.10;;;9.40;1.00;;;-143.32;99.31;54515.47;4944566;29;20438;-89
2021/04/30 10:25:49;;;;;;;85.97;47.17;;;9.50;99.90;;;-143.32;98.58;54541.72;4936514;29;20473;-87
2021/04/30 11:39:51;;;;;;;127.53;55.07;;;10.70;99.90;;;-143.32;91.33;54572.03;5364072;23;20849;-92
2021/04/30 12:52:48;;;;;;;118.93;48.43;;;11.70;99.90;;;-143.32;88.07;54638.72;4777303;30;20557;-87
2021/04/30 13:14:59;;;;;;;65.23;31.83;;;11.40;99.90;;;-143.32;87.55;54650.84;4788937;29;20498;-89
2021/04/30 13:56:12;;;;;;;49.23;27.07;;;12.60;1.00;;;-143.32;81.40;54681.16;4899718;29;20488;-94
2021/04/30 14:02:21;;;;;;;38.00;21.87;;;12.70;1.00;;;-143.32;78.27;54626.59;4906068;29;20419;-93
2021/04/30 14:04:48;;;;;;;34.70;21.90;;;13.10;1.00;;;-143.32;78.34;54697.31;4912891;29;20471;-93
2021/04/30 14:07:15;;;;;;;48.03;25.77;;;13.10;1.00;;;-143.32;80.75;54685.19;4911742;29;20813;-93
2021/04/30 14:09:44;;;;;;;38.90;22.63;;;12.80;1.00;;;-143.32;78.52;54662.97;4902246;29;20451;-88
2021/04/30 14:12:16;;;;;;;40.10;23.00;;;13.00;1.00;;;-143.32;77.33;54642.75;4899652;29;20484;-90
2021/04/30 14:14:43;;;;;;;39.80;25.23;;;13.10;1.00;;;-143.32;77.50;54650.84;4900626;29;20528;-89
2021/04/30 14:17:16;;;;;;;39.93;25.17;;;13.20;1.00;;;-143.32;78.25;54650.84;4899309;29;20575;-89
2021/04/30 14:19:52;;;;;;;;;;;;;;;;;;;;;
2021/04/30 14:22:21;;;;;;;43.23;23.10;;;13.20;1.00;;;-143.32;78.69;54687.22;4899419;29;20428;-92
2021/04/30 14:24:50;;;;;;;40.23;24.77;;;13.00;1.00;;;-143.32;79.25;54723.56;4899826;29;20856;-89
2021/04/30 14:27:18;;;;;;;38.47;25.23;;;12.90;1.00;;;-143.32;80.38;54685.19;4900272;29;20846;-93
2021/04/30 14:47:13;;;;;;;36.00;21.07;;;12.60;1.00;;;-143.32;79.29;54745.81;4923201;29;20433;-92
2021/04/30 14:52:15;;;;;;;31.97;20.67;;;12.50;1.00;;;-143.32;79.14;54695.28;4991732;23;20566;-91
2021/04/30 14:54:43;;;;;;;31.57;19.70;;;12.60;1.00;;;-143.32;79.27;54737.72;4911882;29;20447;-92
2021/04/30 14:57:19;;;;;;;32.70;22.77;;;12.60;1.00;;;-143.32;79.30;54759.94;4907644;29;20516;-93
2021/04/30 14:59:49;;;;;;;35.40;24.40;;;12.60;1.00;;;-143.32;80.00;54739.75;4910127;29;20420;-93
2021/04/30 15:02:17;;;;;;;37.17;23.23;;;12.50;1.00;;;-143.32;80.16;54717.50;4915015;29;20444;-93
2021/04/30 15:11:15;;;;;;;43.07;27.47;;;12.80;1.00;;;-143.32;80.01;54711.44;4882895;29;20477;-90
2021/04/30 15:13:41;;;;;;;44.23;25.83;;;12.80;1.00;;;-143.32;80.27;54735.69;4880124;29;20490;-89
2021/04/30 15:16:10;;;;;;;42.07;24.00;;;12.70;1.00;;;-143.32;80.11;54691.25;4879539;29;20509;-92
2021/04/30 15:18:37;;;;;;;35.43;21.37;;;12.70;1.00;;;-143.32;79.63;54697.31;4864582;29;20549;-91
2021/04/30 15:21:22;;;;;;;34.50;23.43;;;12.80;1.00;;;-143.32;78.85;54677.09;4868563;29;21005;-94
2021/04/30 15:23:49;;;;;;;35.90;21.53;;;13.10;1.00;;;-143.32;78.42;54699.34;5007730;23;20573;-92
2021/04/30 15:26:15;;;;;;;39.70;21.47;;;13.20;1.00;;;-143.32;77.93;54695.28;4885802;29;20473;-91
2021/04/30 15:28:42;;;;;;;30.90;19.85;;;13.20;1.00;;;-143.32;77.48;54725.59;4886083;29;20506;-93
2021/04/30 15:31:13;;;;;;;32.57;20.07;;;13.10;1.00;;;-143.32;78.78;54721.56;4882641;29;20208;-93